Time;durP1;ratioP1;P1;durP2;ratioP2;P2;SDS_P1;SDS_P2;PMS_P1;PMS_P2;Temp;Humidity;BMP_temperature;BMP_pressure;BME280_temperature;BME280_humidity;BME280_pressure;Samples;Min_cycle;Max_cycle;Signal;HPM_P1;HPM_P2
2021/04/13 00:00:01;;;;;;;8.35;4.40;;;;;;;2.29;94.54;101938.88;5216631;28;20108;-79
2021/04/13 00:02:37;;;;;;;6.45;3.88;;;;;;;2.34;94.05;101934.72;5215176;28;20040;-79
2021/04/13 00:05:09;;;;;;;6.00;4.25;;;;;;;2.34;94.45;101927.81;5216767;28;20449;-79
2021/04/13 00:07:44;;;;;;;8.20;4.50;;;;;;;2.31;94.55;101935.50;5215510;28;20037;-80
2021/04/13 00:10:37;;;;;;;10.02;4.82;;;;;;;2.35;94.50;101923.56;5216149;28;20028;-80
2021/04/13 00:13:08;;;;;;;12.93;6.47;;;;;;;2.30;94.23;101925.19;5219770;28;20533;-80
2021/04/13 00:15:51;;;;;;;12.02;6.25;;;;;;;2.32;93.80;101926.09;5220617;28;20028;-81
2021/04/13 00:18:27;;;;;;;10.13;5.40;;;;;;;2.34;93.18;101921.81;5220300;28;20028;-80
2021/04/13 00:21:10;;;;;;;11.15;5.32;;;;;;;2.37;93.69;101932.19;5218791;28;20410;-80
2021/04/13 00:23:44;;;;;;;10.27;4.88;;;;;;;2.33;93.67;101930.41;5211716;28;20040;-81
2021/04/13 00:26:23;;;;;;;8.63;4.63;;;;;;;2.22;94.60;101935.34;5214058;28;20029;-79
2021/04/13 00:28:55;;;;;;;7.15;4.82;;;;;;;2.12;94.64;101929.94;5214199;28;20118;-79
2021/04/13 00:31:45;;;;;;;6.75;4.75;;;;;;;2.20;94.61;101924.09;5208967;28;20487;-79
2021/04/13 00:34:25;;;;;;;8.10;4.95;;;;;;;2.20;94.80;101936.16;5205122;28;20179;-81
2021/04/13 00:37:20;;;;;;;9.07;4.90;;;;;;;2.12;95.24;101940.25;5201820;28;20033;-81
2021/04/13 00:40:12;;;;;;;9.88;5.30;;;;;;;2.19;95.65;101930.09;5201807;28;20071;-79
2021/04/13 00:42:42;;;;;;;6.97;5.00;;;;;;;2.23;95.59;101938.78;5201659;28;20060;-80
2021/04/13 00:45:18;;;;;;;10.25;6.40;;;;;;;2.15;96.03;101930.03;5196619;28;20029;-79
2021/04/13 00:47:49;;;;;;;10.15;5.40;;;;;;;2.18;95.58;101935.25;5196206;28;20029;-80
2021/04/13 00:50:31;;;;;;;9.27;5.80;;;;;;;2.13;95.84;101930.00;5197378;28;20075;-82
2021/04/13 00:53:06;;;;;;;9.32;5.75;;;;;;;2.25;94.84;101937.09;5206656;28;20060;-81
2021/04/13 00:55:41;;;;;;;10.93;6.28;;;;;;;2.28;95.56;101939.72;5208329;28;20372;-80
2021/04/13 00:58:20;;;;;;;9.38;5.88;;;;;;;2.20;95.12;101943.88;5214876;28;20052;-79
2021/04/13 01:00:54;;;;;;;10.15;6.50;;;;;;;2.26;95.65;101941.41;5205795;28;20036;-81
2021/04/13 01:03:28;;;;;;;10.07;6.15;;;;;;;2.25;95.76;101937.09;5210736;28;20028;-80
2021/04/13 01:06:00;;;;;;;10.00;6.78;;;;;;;2.16;96.37;101940.38;5219569;28;21318;-79
2021/04/13 01:08:37;;;;;;;11.70;6.78;;;;;;;2.14;96.49;101939.47;5209848;28;20086;-79
2021/04/13 01:11:12;;;;;;;12.02;7.30;;;;;;;2.26;95.56;101941.41;5209349;28;20040;-79
2021/04/13 01:13:48;;;;;;;11.65;6.88;;;;;;;2.23;96.05;101938.78;5205674;28;20094;-81
2021/04/13 01:16:22;;;;;;;10.52;6.70;;;;;;;2.27;95.37;101940.56;5196784;28;20036;-80
2021/04/13 01:18:56;;;;;;;14.18;7.80;;;;;;;2.21;95.76;101938.78;5195761;28;20028;-80
2021/04/13 01:21:57;;;;;;;13.32;7.35;;;;;;;2.16;97.02;101944.66;5194648;28;21277;-80
2021/04/13 01:24:34;;;;;;;14.02;8.10;;;;;;;2.15;97.01;101941.22;5174488;28;20040;-80
2021/04/13 01:27:10;;;;;;;11.80;7.55;;;;;;;2.14;97.34;101943.78;5179495;28;20096;-79
2021/04/13 01:29:42;;;;;;;11.80;8.20;;;;;;;2.07;97.33;101945.34;5181308;28;20044;-82
2021/04/13 01:32:13;;;;;;;13.63;8.25;;;;;;;2.09;97.84;101950.53;5178687;28;20032;-81
2021/04/13 01:34:47;;;;;;;11.85;7.55;;;;;;;2.02;98.03;101948.66;5176266;28;21058;-80
2021/04/13 01:43:13;;;;;;;13.88;8.55;;;;;;;1.99;97.89;101948.63;5196595;28;20580;-80
2021/04/13 01:45:48;;;;;;;14.23;8.88;;;;;;;1.97;98.36;101951.16;5193738;28;20556;-80
2021/04/13 01:48:19;;;;;;;13.60;8.43;;;;;;;1.89;97.83;101946.66;5194790;28;20033;-79
2021/04/13 01:50:57;;;;;;;16.50;8.88;;;;;;;1.89;98.12;101941.50;5193264;28;20407;-80
2021/04/13 01:53:33;;;;;;;15.68;8.50;;;;;;;1.91;98.66;101947.56;5196043;28;20036;-80
2021/04/13 01:56:08;;;;;;;12.55;8.27;;;;;;;1.88;98.45;101945.81;5198820;28;20044;-80
2021/04/13 01:58:57;;;;;;;13.05;8.55;;;;;;;1.98;98.16;101952.03;5198991;28;20025;-81
2021/04/13 02:01:31;;;;;;;15.00;9.02;;;;;;;1.82;99.15;101952.53;5198971;28;20647;-81
2021/04/13 02:04:20;;;;;;;13.63;8.90;;;;;;;1.80;98.57;101951.63;5191718;28;20507;-80
2021/04/13 02:07:28;;;;;;;14.45;8.52;;;;;;;1.70;98.01;101965.16;5190777;28;20039;-82
2021/04/13 02:10:23;;;;;;;12.40;8.10;;;;;;;1.65;97.08;101950.41;5195522;28;20069;-79
2021/04/13 02:13:00;;;;;;;13.07;8.43;;;;;;;1.63;97.79;101954.66;5189701;28;20037;-79
2021/04/13 02:15:36;;;;;;;14.15;8.60;;;;;;;1.51;97.04;101950.13;5197582;28;20037;-82
2021/04/13 02:18:16;;;;;;;11.75;8.00;;;;;;;1.47;96.85;101953.47;5194396;28;20037;-80
2021/04/13 02:20:49;;;;;;;12.90;8.40;;;;;;;1.36;97.89;101952.34;5193514;28;20375;-80
2021/04/13 02:23:32;;;;;;;12.27;8.30;;;;;;;1.28;98.68;101948.72;5204329;28;20040;-80
2021/04/13 02:26:05;;;;;;;12.80;8.10;;;;;;;1.34;98.47;101950.56;5205951;28;20059;-79
2021/04/13 02:28:37;;;;;;;13.95;8.93;;;;;;;1.32;99.57;101950.53;5206549;28;20039;-81
2021/04/13 02:31:10;;;;;;;13.77;8.82;;;;;;;1.26;100.00;101952.09;5205329;28;20036;-80
2021/04/13 02:33:44;;;;;;;13.32;8.90;;;;;;;1.30;100.00;101952.22;5209916;28;20064;-80
2021/04/13 02:36:29;;;;;;;14.30;8.73;;;;;;;1.33;100.00;101953.97;5214269;28;20099;-80
2021/04/13 02:39:01;;;;;;;16.60;9.48;;;;;;;1.30;100.00;101946.16;5214090;28;20025;-82
2021/04/13 02:41:38;;;;;;;13.35;9.20;;;;;;;1.33;100.00;101951.38;5214089;28;20013;-82
2021/04/13 02:44:13;;;;;;;16.85;9.27;;;;;;;1.30;100.00;101947.06;5212480;28;20078;-79
2021/04/13 02:46:44;;;;;;;16.95;10.00;;;;;;;1.35;100.00;101936.84;5217492;28;20028;-81
2021/04/13 02:49:19;;;;;;;14.73;9.07;;;;;;;1.45;99.72;101946.53;5218615;28;20032;-80
2021/04/13 02:51:59;;;;;;;12.65;9.00;;;;;;;1.32;98.75;101937.66;5218835;28;21347;-80
2021/04/13 02:54:35;;;;;;;14.15;8.68;;;;;;;1.16;100.00;101953.56;5219220;28;20045;-79
2021/04/13 02:57:25;;;;;;;15.85;8.73;;;;;;;1.00;100.00;101956.59;5219464;28;20040;-80
2021/04/13 02:59:58;;;;;;;13.68;8.75;;;;;;;1.03;99.71;101956.69;5218346;28;20037;-80
2021/04/13 03:03:05;;;;;;;16.60;8.82;;;;;;;0.92;99.50;101963.25;5216518;28;20070;-79
2021/04/13 03:05:38;;;;;;;15.93;9.30;;;;;;;0.90;100.00;101964.91;5218216;28;20132;-80
2021/04/13 03:08:11;;;;;;;13.93;8.20;;;;;;;0.67;100.00;101955.75;5219513;28;20921;-81
2021/04/13 03:10:44;;;;;;;14.88;8.98;;;;;;;0.73;100.00;101955.91;5218929;28;20036;-79
2021/04/13 03:13:18;;;;;;;13.68;9.23;;;;;;;0.81;100.00;101958.66;5219440;28;20041;-80
2021/04/13 03:15:52;;;;;;;15.32;9.02;;;;;;;0.74;100.00;101947.34;5210450;28;20446;-80
2021/04/13 03:18:38;;;;;;;17.00;9.48;;;;;;;0.79;100.00;101956.06;5209432;28;20036;-79
2021/04/13 03:21:33;;;;;;;14.60;9.43;;;;;;;0.81;100.00;101954.41;5209900;28;20036;-79
2021/04/13 03:24:07;;;;;;;15.10;8.90;;;;;;;0.88;100.00;101953.72;5211027;28;20522;-79
2021/04/13 03:26:50;;;;;;;14.93;9.52;;;;;;;0.97;100.00;101956.53;5209299;28;20041;-80
2021/04/13 03:29:32;;;;;;;17.63;10.00;;;;;;;1.03;100.00;101950.69;5208382;28;20114;-82
2021/04/13 03:32:04;;;;;;;19.30;9.70;;;;;;;1.19;100.00;101945.91;5208816;28;20716;-79
2021/04/13 03:34:39;;;;;;;19.10;10.43;;;;;;;1.23;100.00;101954.59;5205590;28;20068;-80
2021/04/13 03:37:11;;;;;;;;;;;;;;;1.26;100.00;101954.66;5204264;28;20070;-81
2021/04/13 03:39:44;;;;;;;14.45;9.55;;;;;;;1.34;100.00;101954.00;5206269;28;19978;-79
2021/04/13 03:42:19;;;;;;;17.70;9.15;;;;;;;1.40;100.00;101954.13;5205575;28;20024;-82
2021/04/13 03:44:51;;;;;;;14.38;9.40;;;;;;;1.24;99.81;101952.03;5210194;28;20032;-80
2021/04/13 03:47:26;;;;;;;16.52;9.77;;;;;;;1.20;100.00;101957.97;5212601;28;20561;-79
2021/04/13 03:49:57;;;;;;;17.35;9.50;;;;;;;1.23;100.00;101962.31;5214579;28;20664;-80
2021/04/13 03:52:34;;;;;;;14.82;9.45;;;;;;;1.21;100.00;101959.69;5212081;28;20029;-81
2021/04/13 03:55:20;;;;;;;16.85;9.48;;;;;;;1.18;100.00;101951.91;5213492;28;20024;-80
2021/04/13 03:57:50;;;;;;;14.75;9.27;;;;;;;1.14;100.00;101957.81;5211738;28;20517;-79
2021/04/13 04:00:26;;;;;;;15.82;9.60;;;;;;;1.16;100.00;101958.72;5220728;28;20049;-81
2021/04/13 04:02:57;;;;;;;16.45;9.80;;;;;;;1.09;100.00;101964.53;5231816;28;20139;-81
2021/04/13 04:05:43;;;;;;;18.33;9.35;;;;;;;1.36;100.00;101957.50;5214474;28;20036;-81
2021/04/13 04:08:46;;;;;;;14.07;8.95;;;;;;;1.31;100.00;101965.94;5219113;28;20103;-80
2021/04/13 04:11:30;;;;;;;14.63;9.10;;;;;;;1.33;100.00;101954.84;5218444;28;20510;-82
2021/04/13 04:14:00;;;;;;;15.27;9.07;;;;;;;1.36;100.00;101957.50;5221029;28;20479;-82
2021/04/13 04:16:33;;;;;;;15.70;9.25;;;;;;;1.44;100.00;101961.09;5220643;28;20090;-82
2021/04/13 04:19:17;;;;;;;18.55;9.82;;;;;;;1.46;100.00;101964.59;5223024;28;20925;-81
2021/04/13 04:22:02;;;;;;;15.95;9.43;;;;;;;1.52;100.00;101967.31;5222246;28;20036;-82
2021/04/13 04:24:38;;;;;;;20.17;10.32;;;;;;;1.55;100.00;101964.81;5221084;28;20043;-81
2021/04/13 04:27:14;;;;;;;18.35;9.60;;;;;;;1.54;100.00;101970.78;5223080;28;20040;-82
2021/04/13 04:29:52;;;;;;;17.38;10.25;;;;;;;1.69;100.00;101965.97;5217459;28;20503;-79
2021/04/13 04:32:28;;;;;;;20.40;10.23;;;;;;;1.70;100.00;101964.25;5218191;28;20086;-80
2021/04/13 04:35:01;;;;;;;19.55;9.55;;;;;;;1.79;100.00;101971.38;5217937;28;20032;-79
2021/04/13 04:37:34;;;;;;;17.48;9.10;;;;;;;1.91;100.00;101975.91;5217510;28;20508;-79
2021/04/13 04:40:17;;;;;;;13.90;8.75;;;;;;;1.96;100.00;101980.34;5215415;28;20712;-81
2021/04/13 04:43:15;;;;;;;15.05;8.38;;;;;;;2.00;100.00;101989.00;5215360;28;20187;-79
2021/04/13 04:45:51;;;;;;;15.48;8.98;;;;;;;2.01;100.00;101988.19;5217046;28;20064;-81
2021/04/13 04:48:39;;;;;;;16.20;8.70;;;;;;;2.06;100.00;101979.72;5217514;28;21271;-81
2021/04/13 04:51:11;;;;;;;14.27;7.97;;;;;;;2.17;100.00;101985.94;5216649;28;20032;-81
2021/04/13 04:53:42;;;;;;;19.00;8.20;;;;;;;2.14;100.00;101996.19;5217888;28;20044;-79
2021/04/13 04:56:12;;;;;;;14.40;8.52;;;;;;;2.25;99.59;101994.72;5218079;28;20177;-78
2021/04/13 04:58:43;;;;;;;15.60;8.18;;;;;;;2.21;99.90;102003.25;5218512;28;20033;-81
2021/04/13 05:01:13;;;;;;;14.15;7.28;;;;;;;2.13;100.00;102003.91;5221176;28;20183;-81
2021/04/13 05:03:46;;;;;;;13.27;7.63;;;;;;;2.27;100.00;102003.34;5221634;28;20029;-81
2021/04/13 05:06:18;;;;;;;16.60;7.68;;;;;;;2.29;100.00;102011.09;5220835;28;20033;-79
2021/04/13 05:08:49;;;;;;;12.88;7.53;;;;;;;2.29;99.69;102016.25;5219011;28;20082;-80
2021/04/13 05:11:21;;;;;;;16.17;7.60;;;;;;;2.37;100.00;102014.72;5209567;28;20159;-81
2021/04/13 05:13:52;;;;;;;16.20;6.97;;;;;;;2.56;98.73;102016.81;5220193;28;20407;-81
2021/04/13 05:16:23;;;;;;;17.48;7.30;;;;;;;2.66;98.58;102023.91;5219383;28;20061;-80
2021/04/13 05:18:53;;;;;;;16.40;7.82;;;;;;;2.61;98.93;102026.41;5217378;28;20511;-80
2021/04/13 05:21:23;;;;;;;17.20;7.57;;;;;;;2.75;98.55;102024.09;5217789;28;20025;-81
2021/04/13 05:23:54;;;;;;;16.38;7.88;;;;;;;2.91;97.67;102021.84;5218106;28;20036;-82
2021/04/13 05:26:24;;;;;;;19.48;7.30;;;;;;;2.80;98.28;102033.66;5217674;28;20029;-81
2021/04/13 05:28:54;;;;;;;15.93;8.07;;;;;;;2.91;98.12;102032.16;5218462;28;20041;-81
2021/04/13 05:31:24;;;;;;;14.65;7.25;;;;;;;3.04;97.74;102036.69;5218208;28;20589;-80
2021/04/13 05:33:55;;;;;;;16.90;7.68;;;;;;;2.80;98.44;102043.09;5217825;28;20051;-82
2021/04/13 05:36:26;;;;;;;14.80;7.35;;;;;;;2.96;97.90;102039.97;5217998;28;20040;-80
2021/04/13 05:38:56;;;;;;;14.48;7.13;;;;;;;3.30;96.58;102052.63;5217919;28;20075;-81
2021/04/13 05:41:27;;;;;;;16.85;7.70;;;;;;;3.07;97.47;102049.66;5216939;28;20102;-81
2021/04/13 05:43:57;;;;;;;14.77;7.05;;;;;;;3.24;98.27;102049.97;5216703;28;20048;-82
2021/04/13 05:46:27;;;;;;;14.13;7.35;;;;;;;3.43;96.20;102055.47;5216645;28;20072;-81
2021/04/13 05:48:58;;;;;;;11.65;6.53;;;;;;;3.47;97.27;102058.97;5216875;28;20040;-81
2021/04/13 05:51:29;;;;;;;16.13;6.85;;;;;;;3.45;96.49;102055.47;5215132;28;20021;-83
2021/04/13 05:53:59;;;;;;;13.75;6.75;;;;;;;3.54;96.23;102053.91;5215887;28;20041;-81
2021/04/13 05:56:33;;;;;;;13.15;6.53;;;;;;;3.69;95.28;102057.63;5216207;28;20028;-79
2021/04/13 05:59:06;;;;;;;15.05;7.22;;;;;;;3.67;95.46;102061.03;5216708;28;20037;-81
2021/04/13 06:01:37;;;;;;;16.88;6.57;;;;;;;3.72;94.54;102056.78;5215351;28;20028;-82
2021/04/13 06:04:10;;;;;;;11.68;6.40;;;;;;;3.71;94.62;102058.53;5216135;28;20033;-82
2021/04/13 06:06:41;;;;;;;13.88;6.50;;;;;;;3.89;95.00;102057.91;5216162;28;20368;-82
2021/04/13 06:09:11;;;;;;;15.52;6.78;;;;;;;3.92;95.33;102058.84;5215893;28;20047;-80
2021/04/13 06:11:42;;;;;;;12.73;7.10;;;;;;;4.09;94.62;102057.38;5217044;28;20033;-80
2021/04/13 06:14:14;;;;;;;13.50;6.18;;;;;;;4.27;93.96;102057.63;5215381;28;20693;-82
2021/04/13 06:16:48;;;;;;;10.57;5.82;;;;;;;4.21;93.90;102062.72;5216302;28;20024;-82
2021/04/13 06:19:18;;;;;;;10.13;5.35;;;;;;;4.40;91.85;102058.66;5216149;28;20592;-82
2021/04/13 06:21:50;;;;;;;17.15;5.82;;;;;;;4.43;91.87;102059.56;5215129;28;20037;-82
2021/04/13 06:24:21;;;;;;;20.45;6.18;;;;;;;4.85;90.57;102065.28;5215401;28;20037;-83
2021/04/13 06:26:51;;;;;;;13.35;5.40;;;;;;;5.30;89.39;102070.91;5213123;28;20044;-80
2021/04/13 06:29:21;;;;;;;14.35;5.80;;;;;;;5.42;88.58;102065.84;5208212;28;20403;-80
2021/04/13 06:31:52;;;;;;;14.48;5.50;;;;;;;5.15;89.04;102068.16;5213911;28;20032;-81
2021/04/13 06:34:22;;;;;;;14.55;5.35;;;;;;;5.28;88.78;102067.44;5208005;28;20784;-80
2021/04/13 06:36:53;;;;;;;11.35;5.28;;;;;;;5.07;89.28;102079.31;5213862;28;20036;-82
2021/04/13 06:39:23;;;;;;;11.23;5.43;;;;;;;4.71;90.37;102079.78;5214702;28;20067;-81
2021/04/13 06:42:03;;;;;;;13.48;5.25;;;;;;;4.93;91.82;102078.28;5213943;28;20051;-80
2021/04/13 06:44:40;;;;;;;11.63;4.40;;;;;;;5.11;91.26;102081.09;5214832;28;20115;-81
2021/04/13 06:47:23;;;;;;;14.40;5.30;;;;;;;4.76;92.09;102079.81;5209473;28;20029;-82
2021/04/13 06:50:15;;;;;;;17.45;4.68;;;;;;;4.74;91.66;102087.59;5209104;28;20028;-82
2021/04/13 06:53:18;;;;;;;13.55;5.03;;;;;;;4.65;92.65;102092.63;5215410;28;20560;-81
2021/04/13 06:56:00;;;;;;;20.08;5.13;;;;;;;4.78;92.43;102094.53;5213832;28;20033;-79
2021/04/13 06:58:55;;;;;;;18.00;5.20;;;;;;;4.92;92.46;102087.78;5213948;28;20037;-81
2021/04/13 07:01:31;;;;;;;17.45;4.78;;;;;;;5.19;91.24;102088.06;5213751;28;20127;-82
2021/04/13 07:04:11;;;;;;;12.55;4.60;;;;;;;5.08;91.16;102088.81;5213468;28;20059;-82
2021/04/13 07:06:46;;;;;;;14.70;4.50;;;;;;;5.40;90.09;102089.16;5215513;28;20060;-80
2021/04/13 07:09:32;;;;;;;15.55;4.57;;;;;;;5.46;90.22;102088.34;5217252;28;20087;-82
2021/04/13 07:12:09;;;;;;;12.05;4.30;;;;;;;5.74;88.48;102091.19;5216493;28;20033;-82
2021/04/13 07:15:17;;;;;;;14.57;4.25;;;;;;;6.06;87.29;102087.16;5217179;28;20047;-80
2021/04/13 07:17:54;;;;;;;15.95;3.58;;;;;;;5.75;86.97;102097.28;5215720;28;20104;-82
2021/04/13 07:20:50;;;;;;;13.63;4.40;;;;;;;6.25;86.59;102098.53;5217280;28;21458;-81
2021/04/13 07:23:32;;;;;;;16.85;4.32;;;;;;;6.13;86.41;102091.53;5219255;28;20044;-81
2021/04/13 07:26:14;;;;;;;13.32;4.25;;;;;;;7.74;80.68;102086.00;5218896;28;20041;-81
2021/04/13 07:28:57;;;;;;;10.45;3.72;;;;;;;6.85;82.03;102091.03;5217756;28;20079;-81
2021/04/13 07:31:44;;;;;;;10.25;3.88;;;;;;;7.21;83.55;102084.22;5215365;28;20112;-81
2021/04/13 07:34:15;;;;;;;14.40;3.80;;;;;;;9.26;74.66;102073.38;5213872;28;20032;-82
2021/04/13 07:36:52;;;;;;;13.32;3.30;;;;;;;8.74;74.34;102074.53;5218404;28;20020;-82
2021/04/13 07:39:25;;;;;;;10.93;3.28;;;;;;;9.06;74.24;102069.19;5219168;28;20045;-80
2021/04/13 07:42:11;;;;;;;10.07;3.25;;;;;;;10.51;71.38;102065.34;5220088;28;20021;-81
2021/04/13 07:44:58;;;;;;;;;;;;;;;11.71;67.56;102060.16;5219969;28;20029;-80
2021/04/13 07:47:46;;;;;;;10.70;3.20;;;;;;;13.06;61.48;102058.38;5219157;28;19916;-81
2021/04/13 07:50:31;;;;;;;15.20;3.67;;;;;;;11.40;66.75;102071.97;5219589;28;20063;-82
2021/04/13 07:53:15;;;;;;;6.85;2.83;;;;;;;11.25;66.45;102077.41;5217230;28;20115;-83
2021/04/13 07:56:06;;;;;;;10.57;3.08;;;;;;;10.66;68.24;102079.09;5213148;28;20538;-81
2021/04/13 07:59:02;;;;;;;10.93;3.50;;;;;;;9.53;72.06;102081.03;5231456;28;20471;-80
2021/04/13 08:01:33;;;;;;;;;;;;;;;8.94;73.33;102070.13;5217781;28;20033;-80
2021/04/13 08:04:03;;;;;;;14.43;3.50;;;;;;;10.44;68.90;102077.63;5217884;28;20297;-81
2021/04/13 08:06:40;;;;;;;9.40;3.10;;;;;;;11.80;64.97;102074.84;5220683;28;20124;-81
2021/04/13 08:09:13;;;;;;;10.18;2.90;;;;;;;13.33;62.91;102065.66;5223074;28;20025;-80
2021/04/13 08:12:12;;;;;;;10.75;3.22;;;;;;;12.46;61.81;102069.25;5222682;28;20112;-83
2021/04/13 08:14:56;;;;;;;8.30;2.88;;;;;;;11.42;65.78;102067.56;5217965;28;20064;-80
2021/04/13 08:17:32;;;;;;;11.82;2.97;;;;;;;10.32;67.51;102079.50;5217536;28;20033;-80
2021/04/13 08:20:05;;;;;;;10.32;2.80;;;;;;;8.91;71.55;102075.31;5216494;28;20998;-80
2021/04/13 08:22:54;;;;;;;12.00;3.10;;;;;;;10.41;66.94;102074.16;5215096;28;20449;-81
2021/04/13 08:25:41;;;;;;;10.77;3.00;;;;;;;11.12;67.90;102065.38;5215602;28;20032;-81
2021/04/13 08:28:16;;;;;;;13.52;3.30;;;;;;;11.31;67.11;102064.22;5217157;28;20071;-81
2021/04/13 08:34:42;;;;;;;11.77;2.70;;;;;;;11.69;64.03;102064.56;5221242;28;20102;-81
2021/04/13 08:37:50;;;;;;;10.55;3.17;;;;;;;12.21;62.76;102061.88;5223274;28;20190;-81
2021/04/13 08:40:34;;;;;;;14.23;3.67;;;;;;;12.07;63.48;102064.75;5223985;28;20060;-81
2021/04/13 08:43:08;;;;;;;9.68;3.03;;;;;;;12.95;61.53;102066.56;5220523;28;20680;-81
2021/04/13 08:45:45;;;;;;;11.48;3.60;;;;;;;12.93;61.23;102057.81;5223176;28;20040;-81
2021/04/13 08:48:29;;;;;;;12.50;4.03;;;;;;;11.73;63.49;102066.22;5222905;28;20541;-84
2021/04/13 08:51:13;;;;;;;12.38;3.03;;;;;;;11.93;63.66;102064.13;5222857;28;20041;-82
2021/04/13 08:53:49;;;;;;;13.15;2.92;;;;;;;12.79;61.37;102052.00;5221167;28;20065;-82
2021/04/13 08:56:25;;;;;;;7.53;2.50;;;;;;;12.36;61.32;102059.84;5221882;28;20025;-81
2021/04/13 08:58:59;;;;;;;17.38;3.03;;;;;;;11.00;64.11;102066.47;5220871;28;20059;-81
2021/04/13 09:01:35;;;;;;;13.98;2.53;;;;;;;9.76;67.74;102069.53;5219359;28;20090;-80
2021/04/13 09:04:27;;;;;;;10.85;2.80;;;;;;;8.82;71.27;102067.56;5219767;28;20035;-81
2021/04/13 09:07:05;;;;;;;14.85;3.92;;;;;;;11.17;65.95;102060.09;5219813;28;20108;-81
2021/04/13 09:09:42;;;;;;;10.32;2.60;;;;;;;12.29;60.91;102058.22;5221598;28;20844;-80
2021/04/13 09:12:22;;;;;;;11.80;4.40;;;;;;;14.21;58.70;102053.81;5220306;28;20116;-82
2021/04/13 09:15:01;;;;;;;11.13;2.70;;;;;;;13.62;57.69;102051.81;5221662;28;20041;-81
2021/04/13 09:17:40;;;;;;;12.95;2.90;;;;;;;11.91;60.68;102057.19;5220068;28;20443;-80
2021/04/13 09:20:25;;;;;;;10.00;3.35;;;;;;;10.83;64.37;102063.22;5219953;28;20032;-80
2021/04/13 09:23:34;;;;;;;14.90;6.20;;;;;;;9.67;66.83;102063.53;5219914;28;20033;-80
2021/04/13 09:26:33;;;;;;;13.60;3.90;;;;;;;11.62;63.76;102055.06;5213434;28;20519;-79
2021/04/13 09:29:09;;;;;;;12.02;4.72;;;;;;;12.45;63.36;102048.31;5217298;28;20068;-79
2021/04/13 09:31:39;;;;;;;13.00;3.47;;;;;;;11.23;63.71;102055.66;5216593;28;20024;-81
2021/04/13 09:34:11;;;;;;;17.13;3.17;;;;;;;9.76;66.45;102055.59;5215816;28;20043;-81
2021/04/13 09:36:54;;;;;;;14.20;3.50;;;;;;;9.50;68.47;102065.41;5214780;28;20374;-80
2021/04/13 09:40:02;;;;;;;13.52;4.15;;;;;;;8.93;70.05;102063.16;5217264;28;20029;-79
2021/04/13 09:42:50;;;;;;;15.60;4.28;;;;;;;9.14;69.46;102063.06;5216137;28;20025;-79
2021/04/13 09:45:39;;;;;;;14.85;3.22;;;;;;;9.76;67.27;102055.59;5216039;28;20130;-79
2021/04/13 09:48:47;;;;;;;14.45;4.63;;;;;;;10.23;66.34;102056.06;5216780;28;20031;-80
2021/04/13 09:51:39;;;;;;;11.27;4.80;;;;;;;9.96;65.14;102059.78;5205691;28;20152;-80
2021/04/13 09:54:17;;;;;;;7.53;1.90;;;;;;;9.45;64.06;102054.16;5217080;28;20037;-79
2021/04/13 09:57:35;;;;;;;12.40;3.15;;;;;;;9.34;63.39;102059.41;5215947;28;20116;-80
2021/04/13 10:00:07;;;;;;;10.10;2.90;;;;;;;9.65;62.53;102055.69;5216635;28;20028;-80
2021/04/13 10:03:05;;;;;;;11.88;2.50;;;;;;;9.52;65.54;102045.38;5216488;28;20086;-82
2021/04/13 10:05:42;;;;;;;13.68;2.90;;;;;;;9.62;67.08;102047.91;5215606;28;20913;-80
2021/04/13 10:08:23;;;;;;;10.27;2.40;;;;;;;9.44;68.20;102049.78;5215840;28;20422;-80
2021/04/13 10:11:07;;;;;;;13.43;3.40;;;;;;;9.42;66.50;102038.50;5215785;28;20040;-80
2021/04/13 10:14:12;;;;;;;10.95;2.38;;;;;;;10.21;65.96;102042.16;5215933;28;20033;-79
2021/04/13 10:17:07;;;;;;;9.75;2.30;;;;;;;10.39;64.12;102035.00;5215952;28;20037;-79
2021/04/13 10:19:59;;;;;;;9.80;1.90;;;;;;;10.46;63.22;102043.59;5216223;28;20095;-80
2021/04/13 10:22:42;;;;;;;8.43;1.77;;;;;;;9.86;62.96;102041.59;5213427;28;20025;-80
2021/04/13 10:25:46;;;;;;;12.63;1.92;;;;;;;9.93;62.06;102043.28;5215549;28;20036;-80
2021/04/13 10:28:48;;;;;;;10.63;1.50;;;;;;;10.07;60.67;102041.44;5219740;22;20033;-80
2021/04/13 10:31:54;;;;;;;8.65;1.50;;;;;;;9.59;62.43;102042.72;5180432;28;20060;-81
2021/04/13 10:34:37;;;;;;;9.63;1.85;;;;;;;9.36;63.52;102043.75;5196778;28;20445;-80
2021/04/13 10:37:10;;;;;;;12.60;1.65;;;;;;;9.63;62.80;102038.34;5181561;28;20129;-80
2021/04/13 10:39:55;;;;;;;7.90;1.50;;;;;;;9.72;59.54;102027.81;5200491;28;20028;-80
2021/04/13 10:42:47;;;;;;;8.70;1.67;;;;;;;10.01;60.09;102033.63;5195867;28;20465;-80
2021/04/13 10:45:43;;;;;;;7.15;1.25;;;;;;;9.88;58.57;102032.88;5174160;28;20042;-81
2021/04/13 10:48:40;;;;;;;7.67;1.70;;;;;;;9.42;58.77;102022.84;5191751;28;20033;-80
2021/04/13 10:51:17;;;;;;;5.55;1.38;;;;;;;9.68;59.48;102023.50;5175466;28;20065;-80
2021/04/13 10:54:29;;;;;;;5.63;1.35;;;;;;;9.57;60.90;102025.31;5191026;28;22681;-81
2021/04/13 10:57:37;;;;;;;8.98;1.52;;;;;;;9.51;62.70;102028.00;5174300;28;20052;-80
2021/04/13 11:00:18;;;;;;;5.93;1.20;;;;;;;9.48;60.94;102022.81;5189387;28;20247;-80
2021/04/13 11:02:58;;;;;;;8.32;1.40;;;;;;;9.70;61.14;102024.34;5191718;28;20045;-80
2021/04/13 11:06:06;;;;;;;7.47;1.20;;;;;;;10.02;60.07;102014.50;5178641;28;20537;-81
2021/04/13 11:09:02;;;;;;;6.05;1.60;;;;;;;9.85;60.86;102008.53;5182065;28;20065;-81
2021/04/13 11:11:46;;;;;;;7.55;1.27;;;;;;;9.84;59.23;102012.03;5182704;28;20764;-81
2021/04/13 11:14:25;;;;;;;8.60;2.05;;;;;;;10.00;59.16;102014.47;5195877;28;20103;-81
2021/04/13 11:17:27;;;;;;;10.50;2.88;;;;;;;10.49;59.37;101996.53;5199442;28;20048;-81
2021/04/13 11:20:17;;;;;;;6.50;2.10;;;;;;;10.84;57.19;102012.63;5181877;28;20113;-81
2021/04/13 11:23:01;;;;;;;10.95;1.67;;;;;;;10.89;59.44;102002.97;5177079;28;20037;-81
2021/04/13 11:26:05;;;;;;;9.27;1.55;;;;;;;11.07;57.97;102000.94;5201329;28;20033;-82
2021/04/13 11:28:57;;;;;;;8.43;1.80;;;;;;;11.71;60.37;101988.56;5194803;28;20025;-82
2021/04/13 11:31:31;;;;;;;8.55;1.85;;;;;;;11.61;58.96;101993.09;5182728;28;20095;-82
2021/04/13 11:34:11;;;;;;;8.95;2.75;;;;;;;10.92;58.82;101989.84;5195984;28;20033;-83
2021/04/13 11:37:19;;;;;;;11.35;3.70;;;;;;;10.91;59.59;101995.94;5193789;28;20033;-81
2021/04/13 11:40:14;;;;;;;10.80;2.47;;;;;;;10.44;62.02;101996.59;5200626;28;20025;-81
2021/04/13 11:42:50;;;;;;;8.82;1.73;;;;;;;10.17;62.76;101996.06;5182770;28;20033;-81
2021/04/13 11:45:42;;;;;;;11.88;2.10;;;;;;;10.19;61.28;102002.97;5194674;28;20067;-81
2021/04/13 11:48:24;;;;;;;9.95;2.88;;;;;;;10.10;60.50;101999.59;5195949;28;20029;-81
2021/04/13 11:51:20;;;;;;;10.52;2.88;;;;;;;10.17;59.74;101999.50;5199425;28;21338;-81
2021/04/13 11:53:52;;;;;;;7.80;1.23;;;;;;;10.23;59.65;101995.97;5181578;28;20462;-81
2021/04/13 11:56:22;;;;;;;14.52;1.60;;;;;;;10.46;60.79;101991.31;5199251;28;21412;-82
2021/04/13 11:59:16;;;;;;;11.38;1.63;;;;;;;10.31;61.05;101992.38;5180134;28;20068;-81
2021/04/13 12:01:57;;;;;;;7.80;1.67;;;;;;;10.46;60.88;101994.81;5181618;28;20029;-81
2021/04/13 12:04:44;;;;;;;5.50;1.30;;;;;;;10.61;60.95;101993.75;5179565;28;20026;-81
2021/04/13 12:07:49;;;;;;;10.32;1.42;;;;;;;10.16;58.44;102002.16;5194233;28;20025;-81
2021/04/13 12:10:35;;;;;;;8.48;1.95;;;;;;;9.84;61.00;102006.81;5205948;28;20044;-81
2021/04/13 12:13:30;;;;;;;9.82;1.60;;;;;;;8.95;68.71;102024.91;5188087;28;20029;-80
2021/04/13 12:16:00;;;;;;;5.50;1.00;;;;;;;8.05;73.39;102046.06;5201631;28;20049;-81
2021/04/13 12:18:37;;;;;;;11.35;1.27;;;;;;;7.59;75.91;102052.19;5187683;28;20491;-81
2021/04/13 12:21:23;;;;;;;4.93;0.98;;;;;;;7.23;77.32;102064.28;5206075;28;20029;-80
2021/04/13 12:23:55;;;;;;;;;;;;;;;6.80;78.31;102056.38;5199614;28;20041;-80
2021/04/13 12:26:39;;;;;;;4.97;0.93;;;;;;;6.64;80.86;102059.78;5199155;28;20190;-80
2021/04/13 12:29:33;;;;;;;2.97;0.80;;;;;;;6.43;85.05;102072.69;5183078;28;20033;-80
2021/04/13 12:32:12;;;;;;;4.40;0.60;;;;;;;6.41;85.43;102066.63;5199900;28;20079;-80
2021/04/13 12:34:48;;;;;;;3.40;0.70;;;;;;;6.67;82.52;102068.47;5200178;28;20048;-79